Hartsburg, Illinois
Current Conditions -  °F | °C
As of 7:35 AM on Tuesday 21 Oct 2014 (Local Time) from KAAA Reporting Station
Clear Clear  
Wind Chill: 42°   Ceiling: Unl
Heat Index: 42°   Visibility: 10mi
Dew Point: 40°   Wind: 3mph
Humidity: 91%   Direction: 350°N
Pressure: 30.11"   Gusts: NA
Location:  40.25°N, 89.44°W
Report Text: KAAA 211235Z AUTO 35003KT 10SM CLR 06/05 A3011 RMK AO2 T00580045
Loading
Personal Weather Stations






























Interactive Weather Map
Tropical Storm Tracking
New forecast layout! Learn more

10-Day Weather Forecast

Advertisements
Track Severe Weather on mobile